This is the latest recevied weather packets stored in our database for station/object KE8WMS. If no packets are shown the sender has not sent any weather packets the latest 10 day(s).
| Time | Temp. | Humidity | Pressure | Rain* | Wind** | Luminosity | Snow |
|---|---|---|---|---|---|---|---|
| 1787762115 | 26.11° C | 60% | 1012.4 hPa | 0 mm | - | 700 W/m² | - |
| 1787761811 | 26.67° C | 59% | 1012.4 hPa | 0 mm | - | 688 W/m² | - |
| 1787761506 | 26.11° C | 61% | 1012.5 hPa | 0 mm | - | 683 W/m² | - |
| 1787761201 | 26.67° C | 61% | 1012.6 hPa | 0 mm | - | 685 W/m² | - |
| 1787760901 | 25.56° C | 64% | 1012.8 hPa | 0 mm | - | 687 W/m² | - |
| 1787760599 | 26.11° C | 63% | 1012.6 hPa | 0 mm | - | 688 W/m² | - |
| 1787760298 | 26.11° C | 65% | 1012.9 hPa | 0 mm | - | 680 W/m² | - |
| 1787759996 | 25.56° C | 66% | 1012.8 hPa | 0 mm | - | 623 W/m² | - |
| 1787759696 | 25.56° C | 64% | 1012.6 hPa | 0 mm | - | 481 W/m² | - |
| 1787759392 | 25° C | 66% | 1013 hPa | 0 mm | - | 616 W/m² | - |
| 1787759087 | 25° C | 64% | 1012.9 hPa | 0 mm | - | 430 W/m² | - |
| 1787758785 | 25.56° C | 63% | 1012.9 hPa | 0 mm | - | 428 W/m² | - |
| 1787758482 | 25.56° C | 64% | 1012.6 hPa | 0 mm | - | 422 W/m² | - |
| 1787758180 | 25° C | 65% | 1012.6 hPa | 0 mm | - | 637 W/m² | - |
| 1787757877 | 24.44° C | 67% | 1012.8 hPa | 0 mm | - | 559 W/m² | - |
| 1787757572 | 24.44° C | 70% | 1012.5 hPa | 0 mm | - | 593 W/m² | - |
| 1787757272 | 24.44° C | 69% | 1012.4 hPa | 0 mm | - | 471 W/m² | - |
| 1787756970 | 23.89° C | 71% | 1012.4 hPa | 0 mm | - | 598 W/m² | - |
| 1787756666 | 23.89° C | 70% | 1012.5 hPa | 0 mm | - | 415 W/m² | - |
| 1787756365 | 23.89° C | 71% | 1012.5 hPa | 0 mm | - | 236 W/m² | - |
| 1787756060 | 23.33° C | 73% | 1012.5 hPa | 0 mm | - | 329 W/m² | - |
| 1787755755 | 23.33° C | 74% | 1012.3 hPa | 0 mm | - | 454 W/m² | - |
| 1787755450 | 23.33° C | 73% | 1012.4 hPa | 0 mm | - | 339 W/m² | - |
| 1787755149 | 23.33° C | 73% | 1012.5 hPa | 0 mm | - | 381 W/m² | - |
| 1787754843 | 22.78° C | 73% | 1012.4 hPa | 0 mm | - | 421 W/m² | - |
* Rain latest hour (hover to see other rain measurements)
** Current wind speed in m/s (hover to see current wind gust speed)